Time;durP1;ratioP1;P1;durP2;ratioP2;P2;SDS_P1;SDS_P2;PMS_P1;PMS_P2;Temp;Humidity;BMP_temperature;BMP_pressure;BME280_temperature;BME280_humidity;BME280_pressure;Samples;Min_cycle;Max_cycle;Signal;HPM_P1;HPM_P2
2023/09/10 00:01:01;;;;;;;;;;;;;;;;;;5056229;28;20020;-61
2023/09/10 00:03:27;;;;;;;;;;;;;;;;;;5050541;28;20011;-61
2023/09/10 00:05:53;;;;;;;;;;;;;;;;;;5055868;28;20370;-61
2023/09/10 00:08:19;;;;;;;;;;;;;;;;;;5052211;28;19997;-61
2023/09/10 00:10:45;;;;;;;;;;;;;;;;;;5050591;28;19929;-61
2023/09/10 00:13:11;;;;;;;;;;;;;;;;;;5049867;28;20007;-61
2023/09/10 00:15:37;;;;;;;;;;;;;;;;;;5059298;28;19958;-61
2023/09/10 00:18:03;;;;;;;;;;;;;;;;;;5051715;28;20401;-61
2023/09/10 00:20:29;;;;;;;;;;;;;;;;;;5056365;28;19925;-61
2023/09/10 00:22:55;;;;;;;;;;;;;;;;;;5052216;28;19981;-61
2023/09/10 00:25:21;;;;;;;;;;;;;;;;;;5056495;28;19929;-61
2023/09/10 00:27:46;;;;;;;;;;;;;;;;;;5055548;28;19929;-61
2023/09/10 00:30:12;;;;;;;;;;;;;;;;;;5050836;28;20028;-61
2023/09/10 00:32:38;;;;;;;;;;;;;;;;;;5051809;28;20059;-61
2023/09/10 00:35:04;;;;;;;;;;;;;;;;;;5031149;28;19932;-61
2023/09/10 00:37:30;;;;;;;;;;;;;;;;;;5052423;28;19964;-61
2023/09/10 00:39:56;;;;;;;;;;;;;;;;;;5054118;28;19925;-62
2023/09/10 00:42:23;;;;;;;;;;;;;;;;;;5048400;28;19932;-61
2023/09/10 00:44:48;;;;;;;;;;;;;;;;;;5050862;28;19920;-61
2023/09/10 00:47:14;;;;;;;;;;;;;;;;;;5050129;28;19928;-62
2023/09/10 00:49:40;;;;;;;;;;;;;;;;;;5048604;28;19920;-61
2023/09/10 00:52:06;;;;;;;;;;;;;;;;;;5050776;28;20002;-62
2023/09/10 00:54:32;;;;;;;;;;;;;;;;;;5051974;28;19963;-61
2023/09/10 00:57:00;;;;;;;;;;;;;;;;;;5052023;28;20492;-61
2023/09/10 00:59:26;;;;;;;;;;;;;;;;;;5048533;28;20317;-61
2023/09/10 01:01:52;;;;;;;;;;;;;;;;;;5053571;28;19924;-62
2023/09/10 01:04:18;;;;;;;;;;;;;;;;;;5048931;28;19936;-62
2023/09/10 01:06:44;;;;;;;;;;;;;;;;;;5050058;28;19924;-61
2023/09/10 01:09:10;;;;;;;;;;;;;;;;;;5057632;28;19920;-61
2023/09/10 01:11:36;;;;;;;;;;;;;;;;;;5052332;28;19927;-61
2023/09/10 01:14:02;;;;;;;;;;;;;;;;;;5054015;28;19931;-61
2023/09/10 01:16:28;;;;;;;;;;;;;;;;;;5055406;28;19921;-61
2023/09/10 01:18:54;;;;;;;;;;;;;;;;;;5053052;28;19921;-61
2023/09/10 01:21:20;;;;;;;;;;;;;;;;;;5051672;28;19982;-61
2023/09/10 01:23:45;;;;;;;;;;;;;;;;;;5053862;28;19936;-61
2023/09/10 01:26:11;;;;;;;;;;;;;;;;;;5044554;28;19925;-62
2023/09/10 01:28:37;;;;;;;;;;;;;;;;;;5050953;28;20408;-61
2023/09/10 01:31:03;;;;;;;;;;;;;;;;;;5054691;28;19931;-61
2023/09/10 01:33:29;;;;;;;;;;;;;;;;;;5048078;28;19925;-62
2023/09/10 01:35:55;;;;;;;;;;;;;;;;;;5051992;28;21364;-61
2023/09/10 01:38:21;;;;;;;;;;;;;;;;;;5056997;28;19920;-61
2023/09/10 01:40:47;;;;;;;;;;;;;;;;;;5054626;28;20028;-62
2023/09/10 01:43:13;;;;;;;;;;;;;;;;;;5054251;28;19924;-61
2023/09/10 01:45:38;;;;;;;;;;;;;;;;;;5054022;28;19940;-61
2023/09/10 01:48:04;;;;;;;;;;;;;;;;;;5051343;28;20382;-61
2023/09/10 01:50:30;;;;;;;;;;;;;;;;;;5054546;28;20624;-61
2023/09/10 01:52:56;;;;;;;;;;;;;;;;;;5052945;28;19932;-61
2023/09/10 01:55:22;;;;;;;;;;;;;;;;;;5048217;28;20243;-61
2023/09/10 01:57:48;;;;;;;;;;;;;;;;;;5050364;28;20019;-61
2023/09/10 02:00:14;;;;;;;;;;;;;;;;;;5058907;28;19928;-62
2023/09/10 02:02:40;;;;;;;;;;;;;;;;;;5056715;28;19951;-62
2023/09/10 02:05:06;;;;;;;;;;;;;;;;;;5053221;28;20031;-61
2023/09/10 02:07:32;;;;;;;;;;;;;;;;;;5046876;28;20011;-61
2023/09/10 02:10:01;;;;;;;;;;;;;;;;;;5047710;28;20320;-61
2023/09/10 02:12:26;;;;;;;;;;;;;;;;;;5046002;28;19978;-61
2023/09/10 02:14:52;;;;;;;;;;;;;;;;;;5050683;28;20476;-61
2023/09/10 02:17:18;;;;;;;;;;;;;;;;;;5048391;28;19975;-61
2023/09/10 02:19:44;;;;;;;;;;;;;;;;;;5043979;28;19928;-61
2023/09/10 02:22:10;;;;;;;;;;;;;;;;;;5049945;28;20270;-61
2023/09/10 02:24:36;;;;;;;;;;;;;;;;;;5045680;28;19929;-61
2023/09/10 02:27:02;;;;;;;;;;;;;;;;;;5057632;28;19925;-61
2023/09/10 02:29:28;;;;;;;;;;;;;;;;;;5050077;28;19967;-61
2023/09/10 02:31:54;;;;;;;;;;;;;;;;;;5050189;28;19932;-61
2023/09/10 02:34:20;;;;;;;;;;;;;;;;;;5049986;28;20365;-61
2023/09/10 02:36:46;;;;;;;;;;;;;;;;;;5048114;28;19924;-61
2023/09/10 02:39:11;;;;;;;;;;;;;;;;;;5055174;22;19924;-62
2023/09/10 02:41:37;;;;;;;;;;;;;;;;;;5050389;28;20019;-62
2023/09/10 02:44:03;;;;;;;;;;;;;;;;;;5048120;28;20051;-62
2023/09/10 02:46:29;;;;;;;;;;;;;;;;;;5051049;28;19925;-62
2023/09/10 02:48:55;;;;;;;;;;;;;;;;;;5033743;28;19921;-62
2023/09/10 02:51:21;;;;;;;;;;;;;;;;;;5048140;28;19971;-62
2023/09/10 02:53:48;;;;;;;;;;;;;;;;;;5054391;28;19925;-62
2023/09/10 02:56:14;;;;;;;;;;;;;;;;;;5046346;28;19997;-62
2023/09/10 02:58:40;;;;;;;;;;;;;;;;;;5029809;28;19967;-62
2023/09/10 03:01:06;;;;;;;;;;;;;;;;;;5025749;28;19928;-62
2023/09/10 03:03:32;;;;;;;;;;;;;;;;;;5045708;28;19920;-62
2023/09/10 03:05:58;;;;;;;;;;;;;;;;;;5046685;28;19925;-62
2023/09/10 03:08:24;;;;;;;;;;;;;;;;;;5050469;28;19979;-62
2023/09/10 03:10:50;;;;;;;;;;;;;;;;;;5045531;28;19947;-62
2023/09/10 03:13:16;;;;;;;;;;;;;;;;;;5011278;28;20354;-62
2023/09/10 03:15:41;;;;;;;;;;;;;;;;;;5045935;28;19931;-62
2023/09/10 03:18:07;;;;;;;;;;;;;;;;;;5052168;28;19921;-62
2023/09/10 03:20:33;;;;;;;;;;;;;;;;;;5050753;28;20481;-62
2023/09/10 03:23:02;;;;;;;;;;;;;;;;;;5047797;28;19921;-62
2023/09/10 03:25:27;;;;;;;;;;;;;;;;;;5053779;28;19921;-62
2023/09/10 03:27:53;;;;;;;;;;;;;;;;;;5048711;28;19999;-62
2023/09/10 03:30:19;;;;;;;;;;;;;;;;;;5050772;28;19928;-62
2023/09/10 03:32:45;;;;;;;;;;;;;;;;;;5048827;28;19921;-62
2023/09/10 03:35:11;;;;;;;;;;;;;;;;;;5051575;28;20008;-62
2023/09/10 03:37:37;;;;;;;;;;;;;;;;;;5054273;28;19978;-63
2023/09/10 03:40:06;;;;;;;;;;;;;;;;;;5052755;28;19921;-62
2023/09/10 03:42:33;;;;;;;;;;;;;;;;;;5053456;28;19965;-62
2023/09/10 03:44:59;;;;;;;;;;;;;;;;;;5049220;28;19965;-62
2023/09/10 03:47:28;;;;;;;;;;;;;;;;;;5051187;28;19968;-62
2023/09/10 03:49:53;;;;;;;;;;;;;;;;;;5050912;28;19959;-62
2023/09/10 03:52:19;;;;;;;;;;;;;;;;;;5053290;28;19967;-62
2023/09/10 03:54:45;;;;;;;;;;;;;;;;;;5049411;28;19970;-62
2023/09/10 03:57:11;;;;;;;;;;;;;;;;;;5052049;28;19932;-62
2023/09/10 03:59:37;;;;;;;;;;;;;;;;;;5053730;28;19976;-62
2023/09/10 04:02:03;;;;;;;;;;;;;;;;;;5046340;28;19928;-62
2023/09/10 04:04:29;;;;;;;;;;;;;;;;;;5053282;28;19924;-62
2023/09/10 04:06:55;;;;;;;;;;;;;;;;;;5049847;28;20350;-62
2023/09/10 04:09:21;;;;;;;;;;;;;;;;;;5053821;28;19921;-62
2023/09/10 04:11:46;;;;;;;;;;;;;;;;;;5031005;28;20074;-62
2023/09/10 04:14:12;;;;;;;;;;;;;;;;;;5050991;28;19925;-62
2023/09/10 04:16:38;;;;;;;;;;;;;;;;;;5051454;28;19921;-62
2023/09/10 04:19:04;;;;;;;;;;;;;;;;;;5052787;28;19956;-62
2023/09/10 04:21:30;;;;;;;;;;;;;;;;;;5049532;28;19921;-62
2023/09/10 04:23:56;;;;;;;;;;;;;;;;;;5050112;28;19940;-62
2023/09/10 04:26:22;;;;;;;;;;;;;;;;;;5051985;28;19925;-62
2023/09/10 04:28:48;;;;;;;;;;;;;;;;;;5025977;28;20004;-62
2023/09/10 04:31:13;;;;;;;;;;;;;;;;;;5052405;28;19927;-62
2023/09/10 04:33:39;;;;;;;;;;;;;;;;;;5032671;28;19925;-62
2023/09/10 04:36:05;;;;;;;;;;;;;;;;;;5031228;28;19921;-62
2023/09/10 04:38:31;;;;;;;;;;;;;;;;;;5045728;28;19948;-62
2023/09/10 04:40:57;;;;;;;;;;;;;;;;;;5033220;28;20015;-62
2023/09/10 04:43:23;;;;;;;;;;;;;;;;;;5049850;28;19925;-62
2023/09/10 04:45:49;;;;;;;;;;;;;;;;;;5048094;28;19932;-62
2023/09/10 04:48:15;;;;;;;;;;;;;;;;;;5047550;28;19921;-62
2023/09/10 04:50:40;;;;;;;;;;;;;;;;;;5049039;28;19921;-62
2023/09/10 04:53:06;;;;;;;;;;;;;;;;;;5035079;28;20002;-62
2023/09/10 04:55:32;;;;;;;;;;;;;;;;;;5050692;28;20028;-62
2023/09/10 04:57:58;;;;;;;;;;;;;;;;;;5050298;28;19931;-62
2023/09/10 05:00:24;;;;;;;;;;;;;;;;;;5047090;28;19920;-62
2023/09/10 05:02:50;;;;;;;;;;;;;;;;;;5052915;28;19921;-62
2023/09/10 05:05:16;;;;;;;;;;;;;;;;;;5032770;28;19928;-62
2023/09/10 05:07:42;;;;;;;;;;;;;;;;;;5051986;28;19974;-62
2023/09/10 05:10:08;;;;;;;;;;;;;;;;;;5051081;28;19920;-62
2023/09/10 05:12:33;;;;;;;;;;;;;;;;;;5034551;28;19944;-62
2023/09/10 05:14:59;;;;;;;;;;;;;;;;;;5049398;28;19925;-62
2023/09/10 05:17:25;;;;;;;;;;;;;;;;;;5030734;28;20397;-62
2023/09/10 05:19:51;;;;;;;;;;;;;;;;;;5033591;28;19943;-62
2023/09/10 05:22:17;;;;;;;;;;;;;;;;;;5015014;28;19921;-62
2023/09/10 05:24:43;;;;;;;;;;;;;;;;;;5051307;28;19931;-62
2023/09/10 05:27:09;;;;;;;;;;;;;;;;;;5028264;28;21154;-62
2023/09/10 05:29:35;;;;;;;;;;;;;;;;;;5049353;28;20008;-62
2023/09/10 05:32:01;;;;;;;;;;;;;;;;;;5049711;28;19925;-62
2023/09/10 05:34:27;;;;;;;;;;;;;;;;;;5052282;28;20347;-62
2023/09/10 05:36:53;;;;;;;;;;;;;;;;;;5050986;28;19921;-62
2023/09/10 05:39:18;;;;;;;;;;;;;;;;;;5047142;28;19939;-62
2023/09/10 05:41:44;;;;;;;;;;;;;;;;;;5031979;28;20267;-62
2023/09/10 05:44:10;;;;;;;;;;;;;;;;;;5034188;28;19931;-62
2023/09/10 05:46:36;;;;;;;;;;;;;;;;;;5050852;28;19920;-62
2023/09/10 05:49:02;;;;;;;;;;;;;;;;;;5050951;28;19924;-62
2023/09/10 05:51:28;;;;;;;;;;;;;;;;;;5042832;28;19925;-62
2023/09/10 05:53:54;;;;;;;;;;;;;;;;;;5049630;28;19933;-62
2023/09/10 05:56:20;;;;;;;;;;;;;;;;;;5048137;28;19921;-62
2023/09/10 05:58:46;;;;;;;;;;;;;;;;;;5049585;28;20192;-62
2023/09/10 06:01:12;;;;;;;;;;;;;;;;;;5048598;28;19921;-62
2023/09/10 06:03:38;;;;;;;;;;;;;;;;;;5029992;28;20287;-62
2023/09/10 06:06:04;;;;;;;;;;;;;;;;;;5047948;28;19921;-62
2023/09/10 06:08:31;;;;;;;;;;;;;;;;;;5033726;28;19920;-62
2023/09/10 06:10:56;;;;;;;;;;;;;;;;;;5054451;28;19928;-62
2023/09/10 06:13:22;;;;;;;;;;;;;;;;;;5046475;28;19974;-62
2023/09/10 06:15:48;;;;;;;;;;;;;;;;;;5043577;28;19929;-62
2023/09/10 06:18:14;;;;;;;;;;;;;;;;;;5053954;28;20527;-62
2023/09/10 06:20:40;;;;;;;;;;;;;;;;;;5052829;28;19932;-62
2023/09/10 06:23:06;;;;;;;;;;;;;;;;;;5047881;28;20642;-62
2023/09/10 06:25:32;;;;;;;;;;;;;;;;;;5054713;28;19921;-62
2023/09/10 06:27:58;;;;;;;;;;;;;;;;;;5044940;28;20012;-62
2023/09/10 06:30:24;;;;;;;;;;;;;;;;;;5046980;28;20322;-62
2023/09/10 06:32:50;;;;;;;;;;;;;;;;;;5049573;28;20408;-62
2023/09/10 06:35:16;;;;;;;;;;;;;;;;;;5048066;28;19924;-62
2023/09/10 06:37:42;;;;;;;;;;;;;;;;;;5051834;28;20027;-63
2023/09/10 06:40:08;;;;;;;;;;;;;;;;;;5047197;28;19951;-63
2023/09/10 06:42:34;;;;;;;;;;;;;;;;;;5050555;28;20363;-63
2023/09/10 06:44:59;;;;;;;;;;;;;;;;;;5026902;28;20305;-63
2023/09/10 06:47:27;;;;;;;;;;;;;;;;;;5048080;28;19968;-62
2023/09/10 06:49:53;;;;;;;;;;;;;;;;;;5045931;28;19947;-63
2023/09/10 06:52:19;;;;;;;;;;;;;;;;;;5043991;28;19925;-62
2023/09/10 06:54:44;;;;;;;;;;;;;;;;;;5052651;28;19974;-63
2023/09/10 06:57:10;;;;;;;;;;;;;;;;;;5051141;28;19921;-63
2023/09/10 06:59:36;;;;;;;;;;;;;;;;;;5057363;28;19932;-63
2023/09/10 07:02:03;;;;;;;;;;;;;;;;;;5055015;28;19928;-63
2023/09/10 07:04:28;;;;;;;;;;;;;;;;;;5051291;28;19936;-63
2023/09/10 07:06:55;;;;;;;;;;;;;;;;;;5048342;28;20366;-63
2023/09/10 07:09:21;;;;;;;;;;;;;;;;;;5052074;28;19925;-63
2023/09/10 07:11:48;;;;;;;;;;;;;;;;;;5050190;28;19927;-63
2023/09/10 07:14:13;;;;;;;;;;;;;;;;;;5049477;28;19997;-63
2023/09/10 07:16:39;;;;;;;;;;;;;;;;;;5034616;28;20395;-63
2023/09/10 07:19:05;;;;;;;;;;;;;;;;;;5053864;28;19931;-63
2023/09/10 07:21:31;;;;;;;;;;;;;;;;;;5030115;28;19931;-63
2023/09/10 07:23:57;;;;;;;;;;;;;;;;;;5051265;28;19946;-63
2023/09/10 07:26:23;;;;;;;;;;;;;;;;;;5048910;28;20418;-60
2023/09/10 07:28:49;;;;;;;;;;;;;;;;;;5051728;28;20362;-61
2023/09/10 07:31:15;;;;;;;;;;;;;;;;;;5050800;28;19928;-61
2023/09/10 07:33:41;;;;;;;;;;;;;;;;;;5049439;28;19920;-61
2023/09/10 07:36:07;;;;;;;;;;;;;;;;;;5049700;28;19929;-61
2023/09/10 07:38:32;;;;;;;;;;;;;;;;;;5055614;28;19932;-61
2023/09/10 07:40:58;;;;;;;;;;;;;;;;;;5051720;28;20023;-61
2023/09/10 07:43:24;;;;;;;;;;;;;;;;;;5054108;28;19921;-61
2023/09/10 07:45:50;;;;;;;;;;;;;;;;;;5026676;28;19932;-61
2023/09/10 07:48:16;;;;;;;;;;;;;;;;;;5046918;28;19990;-61
2023/09/10 07:50:42;;;;;;;;;;;;;;;;;;5052778;28;20011;-61
2023/09/10 07:53:08;;;;;;;;;;;;;;;;;;5051297;28;19924;-61
2023/09/10 07:55:34;;;;;;;;;;;;;;;;;;5059390;28;21262;-62
2023/09/10 07:57:59;;;;;;;;;;;;;;;;;;5051813;28;19955;-61
2023/09/10 08:00:25;;;;;;;;;;;;;;;;;;5048339;28;20808;-60
2023/09/10 08:02:51;;;;;;;;;;;;;;;;;;5039059;28;19927;-60
2023/09/10 08:05:17;;;;;;;;;;;;;;;;;;5046374;28;19925;-61
2023/09/10 08:07:43;;;;;;;;;;;;;;;;;;5055703;28;20021;-61
2023/09/10 08:10:11;;;;;;;;;;;;;;;;;;5024859;28;21292;-62
2023/09/10 08:12:37;;;;;;;;;;;;;;;;;;5050952;28;19929;-62
2023/09/10 08:15:04;;;;;;;;;;;;;;;;;;5052711;28;19921;-62
2023/09/10 08:17:30;;;;;;;;;;;;;;;;;;5050010;28;19924;-62
2023/09/10 08:19:56;;;;;;;;;;;;;;;;;;5045829;28;19932;-62
2023/09/10 08:22:22;;;;;;;;;;;;;;;;;;5056961;28;19921;-62
2023/09/10 08:24:48;;;;;;;;;;;;;;;;;;5053882;28;19932;-62
2023/09/10 08:27:14;;;;;;;;;;;;;;;;;;5036484;28;19947;-62
2023/09/10 08:29:40;;;;;;;;;;;;;;;;;;5037623;28;19924;-62
2023/09/10 08:32:06;;;;;;;;;;;;;;;;;;5054662;28;20258;-62
2023/09/10 08:34:32;;;;;;;;;;;;;;;;;;5049841;28;19925;-62
2023/09/10 08:36:58;;;;;;;;;;;;;;;;;;5029524;28;20298;-62
2023/09/10 08:39:24;;;;;;;;;;;;;;;;;;5049555;28;19924;-62
2023/09/10 08:41:50;;;;;;;;;;;;;;;;;;5056837;28;19971;-62
2023/09/10 08:44:19;;;;;;;;;;;;;;;;;;5031299;28;19925;-62
2023/09/10 08:46:45;;;;;;;;;;;;;;;;;;5031399;28;19967;-62
2023/09/10 08:49:11;;;;;;;;;;;;;;;;;;5054775;28;19972;-62
2023/09/10 08:51:37;;;;;;;;;;;;;;;;;;5053131;28;19924;-62
2023/09/10 08:54:03;;;;;;;;;;;;;;;;;;5050785;28;20409;-63
2023/09/10 08:56:29;;;;;;;;;;;;;;;;;;5047206;28;19920;-63
2023/09/10 08:58:55;;;;;;;;;;;;;;;;;;5050959;28;20015;-63
2023/09/10 09:01:21;;;;;;;;;;;;;;;;;;5032569;28;19928;-63
2023/09/10 09:03:47;;;;;;;;;;;;;;;;;;5023356;28;20386;-62
2023/09/10 09:06:13;;;;;;;;;;;;;;;;;;5044494;28;20574;-62
2023/09/10 09:08:39;;;;;;;;;;;;;;;;;;5043197;28;19925;-62
2023/09/10 09:11:05;;;;;;;;;;;;;;;;;;5044868;28;19921;-63
2023/09/10 09:13:31;;;;;;;;;;;;;;;;;;5011161;28;19920;-63
2023/09/10 09:15:57;;;;;;;;;;;;;;;;;;5010069;28;19929;-63
2023/09/10 09:18:23;;;;;;;;;;;;;;;;;;5041796;28;20351;-63
2023/09/10 09:20:50;;;;;;;;;;;;;;;;;;5036551;28;19959;-62
2023/09/10 09:23:17;;;;;;;;;;;;;;;;;;5037969;28;19952;-63
2023/09/10 09:25:43;;;;;;;;;;;;;;;;;;5004850;28;19921;-63
2023/09/10 09:28:09;;;;;;;;;;;;;;;;;;5038267;28;19925;-62
2023/09/10 09:30:35;;;;;;;;;;;;;;;;;;5037557;28;19925;-63
2023/09/10 09:33:01;;;;;;;;;;;;;;;;;;5017483;28;19928;-62
2023/09/10 09:35:27;;;;;;;;;;;;;;;;;;5016069;28;19978;-62
2023/09/10 09:37:53;;;;;;;;;;;;;;;;;;5037824;28;19928;-63
2023/09/10 09:40:21;;;;;;;;;;;;;;;;;;5036939;28;19934;-63
2023/09/10 09:42:47;;;;;;;;;;;;;;;;;;5021682;28;20298;-63
2023/09/10 09:45:12;;;;;;;;;;;;;;;;;;5038729;28;19921;-62
2023/09/10 09:47:38;;;;;;;;;;;;;;;;;;5038560;28;19928;-62
2023/09/10 09:50:04;;;;;;;;;;;;;;;;;;5038719;28;20318;-62
2023/09/10 09:52:30;;;;;;;;;;;;;;;;;;5014065;28;26602;-63
2023/09/10 09:54:56;;;;;;;;;;;;;;;;;;5038802;28;20354;-62
2023/09/10 09:57:22;;;;;;;;;;;;;;;;;;5051274;28;19921;-64
2023/09/10 09:59:49;;;;;;;;;;;;;;;;;;5050398;28;19935;-62
2023/09/10 10:02:15;;;;;;;;;;;;;;;;;;5047224;28;19925;-63
2023/09/10 10:04:41;;;;;;;;;;;;;;;;;;5050383;28;20528;-63
2023/09/10 10:07:07;;;;;;;;;;;;;;;;;;5050014;28;20424;-63
2023/09/10 10:09:33;;;;;;;;;;;;;;;;;;5043259;28;19925;-63
2023/09/10 10:11:59;;;;;;;;;;;;;;;;;;5042720;28;19964;-62
2023/09/10 10:14:25;;;;;;;;;;;;;;;;;;5046321;28;20641;-62
2023/09/10 10:16:51;;;;;;;;;;;;;;;;;;5033702;28;20426;-62
2023/09/10 10:19:17;;;;;;;;;;;;;;;;;;5050052;28;20007;-62
2023/09/10 10:21:42;;;;;;;;;;;;;;;;;;5051727;28;19986;-63
2023/09/10 10:24:08;;;;;;;;;;;;;;;;;;5050608;28;19921;-62
2023/09/10 10:26:34;;;;;;;;;;;;;;;;;;5048388;28;19964;-62
2023/09/10 10:29:00;;;;;;;;;;;;;;;;;;5048410;28;19967;-62
2023/09/10 10:31:28;;;;;;;;;;;;;;;;;;5032293;28;19932;-62
2023/09/10 10:33:54;;;;;;;;;;;;;;;;;;5051665;28;19952;-62
2023/09/10 10:36:19;;;;;;;;;;;;;;;;;;5048050;28;20413;-62
2023/09/10 10:38:45;;;;;;;;;;;;;;;;;;5052176;28;19932;-62
2023/09/10 10:41:11;;;;;;;;;;;;;;;;;;5049808;28;19924;-62
2023/09/10 10:43:38;;;;;;;;;;;;;;;;;;5035286;28;19921;-62
2023/09/10 10:46:04;;;;;;;;;;;;;;;;;;5058315;28;19978;-62
2023/09/10 10:48:30;;;;;;;;;;;;;;;;;;5045774;28;19929;-62
2023/09/10 10:50:56;;;;;;;;;;;;;;;;;;5054938;28;19932;-62
2023/09/10 10:53:22;;;;;;;;;;;;;;;;;;5035519;28;19921;-62
2023/09/10 10:55:48;;;;;;;;;;;;;;;;;;5048658;28;19925;-62
2023/09/10 10:58:14;;;;;;;;;;;;;;;;;;5048148;28;20022;-62
2023/09/10 11:00:40;;;;;;;;;;;;;;;;;;5028408;28;19921;-62
2023/09/10 11:03:06;;;;;;;;;;;;;;;;;;5062918;28;19920;-62
2023/09/10 11:05:32;;;;;;;;;;;;;;;;;;5056582;28;19979;-62
2023/09/10 11:07:58;;;;;;;;;;;;;;;;;;5049804;28;20007;-62
2023/09/10 11:10:23;;;;;;;;;;;;;;;;;;5049920;28;19928;-61
2023/09/10 11:12:49;;;;;;;;;;;;;;;;;;5053975;28;19928;-60
2023/09/10 11:15:15;;;;;;;;;;;;;;;;;;5046563;28;19971;-61
2023/09/10 11:17:41;;;;;;;;;;;;;;;;;;5048987;28;20585;-61
2023/09/10 11:20:08;;;;;;;;;;;;;;;;;;5048570;28;20010;-61
2023/09/10 11:22:34;;;;;;;;;;;;;;;;;;5050335;28;19978;-61
2023/09/10 11:25:00;;;;;;;;;;;;;;;;;;5010467;28;20371;-61
2023/09/10 11:27:30;;;;;;;;;;;;;;;;;;5053181;28;19928;-61
2023/09/10 11:29:56;;;;;;;;;;;;;;;;;;5050239;28;19921;-61
2023/09/10 11:32:22;;;;;;;;;;;;;;;;;;5036647;28;19928;-62
2023/09/10 11:34:48;;;;;;;;;;;;;;;;;;5046812;28;19921;-62
2023/09/10 11:37:14;;;;;;;;;;;;;;;;;;5047006;28;19924;-61
2023/09/10 11:39:40;;;;;;;;;;;;;;;;;;5053292;22;19931;-67
2023/09/10 11:42:08;;;;;;;;;;;;;;;;;;5041485;28;19929;-67
2023/09/10 11:44:33;;;;;;;;;;;;;;;;;;5055961;28;20292;-67
2023/09/10 11:46:59;;;;;;;;;;;;;;;;;;5053449;28;19927;-67
2023/09/10 11:49:25;;;;;;;;;;;;;;;;;;5047716;28;19924;-67
2023/09/10 11:51:51;;;;;;;;;;;;;;;;;;5052146;28;19932;-67
2023/09/10 11:54:17;;;;;;;;;;;;;;;;;;5042431;28;20135;-67
2023/09/10 11:56:43;;;;;;;;;;;;;;;;;;5050716;28;19920;-67
2023/09/10 11:59:09;;;;;;;;;;;;;;;;;;5056796;28;19924;-67
2023/09/10 12:01:35;;;;;;;;;;;;;;;;;;5049077;28;19933;-67
2023/09/10 12:04:01;;;;;;;;;;;;;;;;;;5056580;28;20493;-67
2023/09/10 12:06:27;;;;;;;;;;;;;;;;;;5053507;28;19940;-67
2023/09/10 12:08:54;;;;;;;;;;;;;;;;;;5051116;28;19924;-67
2023/09/10 12:11:20;;;;;;;;;;;;;;;;;;5036815;28;19921;-67
2023/09/10 12:13:45;;;;;;;;;;;;;;;;;;5054539;28;19928;-67
2023/09/10 12:16:12;;;;;;;;;;;;;;;;;;5034037;28;19925;-67
2023/09/10 12:18:38;;;;;;;;;;;;;;;;;;5051092;28;19944;-67
2023/09/10 12:21:05;;;;;;;;;;;;;;;;;;5037614;28;20389;-68
2023/09/10 12:23:31;;;;;;;;;;;;;;;;;;5053227;28;19921;-68
2023/09/10 12:25:57;;;;;;;;;;;;;;;;;;5051100;28;19921;-68
2023/09/10 12:28:22;;;;;;;;;;;;;;;;;;5049865;28;19925;-69
2023/09/10 12:30:48;;;;;;;;;;;;;;;;;;5046899;28;19968;-68
2023/09/10 12:33:14;;;;;;;;;;;;;;;;;;5050932;28;19927;-68
2023/09/10 12:35:40;;;;;;;;;;;;;;;;;;5034933;28;19946;-68
2023/09/10 12:38:06;;;;;;;;;;;;;;;;;;5027764;28;19975;-68
2023/09/10 12:40:32;;;;;;;;;;;;;;;;;;5043651;28;19986;-68
2023/09/10 12:42:58;;;;;;;;;;;;;;;;;;5022964;28;19931;-68
2023/09/10 12:45:24;;;;;;;;;;;;;;;;;;5045199;28;20024;-68
2023/09/10 12:47:50;;;;;;;;;;;;;;;;;;5045864;28;19967;-68
2023/09/10 12:50:15;;;;;;;;;;;;;;;;;;5050316;28;19932;-68
2023/09/10 12:52:41;;;;;;;;;;;;;;;;;;5043484;28;19966;-68
2023/09/10 12:55:07;;;;;;;;;;;;;;;;;;5059000;28;19921;-68
2023/09/10 12:57:33;;;;;;;;;;;;;;;;;;5047453;28;19921;-68
2023/09/10 12:59:59;;;;;;;;;;;;;;;;;;5026034;28;19933;-69
2023/09/10 13:02:25;;;;;;;;;;;;;;;;;;5041705;28;19925;-68
2023/09/10 13:04:51;;;;;;;;;;;;;;;;;;5041946;28;19921;-69
2023/09/10 13:07:17;;;;;;;;;;;;;;;;;;5038188;28;19931;-68
2023/09/10 13:09:44;;;;;;;;;;;;;;;;;;5048598;28;19924;-68
2023/09/10 13:12:10;;;;;;;;;;;;;;;;;;5047682;28;19925;-68
2023/09/10 13:14:39;;;;;;;;;;;;;;;;;;5053339;28;19928;-68
2023/09/10 13:17:05;;;;;;;;;;;;;;;;;;5035900;28;19925;-68
2023/09/10 13:19:31;;;;;;;;;;;;;;;;;;5041787;28;19936;-69
2023/09/10 13:21:57;;;;;;;;;;;;;;;;;;5052232;28;19929;-68
2023/09/10 13:24:22;;;;;;;;;;;;;;;;;;5044766;28;19925;-68
2023/09/10 13:26:48;;;;;;;;;;;;;;;;;;5047694;28;20018;-68
2023/09/10 13:29:14;;;;;;;;;;;;;;;;;;5036716;28;19929;-68
2023/09/10 13:31:40;;;;;;;;;;;;;;;;;;5055641;28;19928;-68
2023/09/10 13:34:06;;;;;;;;;;;;;;;;;;5035947;28;20355;-68
2023/09/10 13:36:32;;;;;;;;;;;;;;;;;;5049934;28;19932;-68
2023/09/10 13:38:58;;;;;;;;;;;;;;;;;;5040903;28;19936;-68
2023/09/10 13:41:24;;;;;;;;;;;;;;;;;;5046385;28;20659;-68
2023/09/10 13:43:50;;;;;;;;;;;;;;;;;;5049736;28;19960;-68
2023/09/10 13:46:16;;;;;;;;;;;;;;;;;;5050863;28;19929;-68
2023/09/10 13:48:42;;;;;;;;;;;;;;;;;;5046558;28;19932;-68
2023/09/10 13:51:08;;;;;;;;;;;;;;;;;;5047547;28;20437;-68
2023/09/10 13:53:34;;;;;;;;;;;;;;;;;;5051040;28;19932;-68
2023/09/10 13:56:00;;;;;;;;;;;;;;;;;;5048526;28;19924;-68
2023/09/10 13:58:26;;;;;;;;;;;;;;;;;;5048462;28;19932;-68
2023/09/10 14:00:51;;;;;;;;;;;;;;;;;;5028857;28;19975;-68
2023/09/10 14:03:20;;;;;;;;;;;;;;;;;;5050753;28;20545;-68
2023/09/10 14:05:46;;;;;;;;;;;;;;;;;;5035593;28;19928;-68
2023/09/10 14:08:12;;;;;;;;;;;;;;;;;;5051038;28;19931;-68
2023/09/10 14:10:38;;;;;;;;;;;;;;;;;;5041676;28;20380;-68
2023/09/10 14:13:04;;;;;;;;;;;;;;;;;;5043919;28;19924;-68
2023/09/10 14:15:30;;;;;;;;;;;;;;;;;;5043035;28;20373;-68
2023/09/10 14:17:56;;;;;;;;;;;;;;;;;;5049851;28;19921;-68
2023/09/10 14:20:21;;;;;;;;;;;;;;;;;;5047729;28;20363;-68
2023/09/10 14:22:49;;;;;;;;;;;;;;;;;;5039712;28;19983;-68
2023/09/10 14:25:15;;;;;;;;;;;;;;;;;;5021391;28;19924;-68
2023/09/10 14:27:41;;;;;;;;;;;;;;;;;;5045547;28;19924;-68
2023/09/10 14:30:07;;;;;;;;;;;;;;;;;;5049852;28;19993;-68
2023/09/10 14:32:33;;;;;;;;;;;;;;;;;;5048763;28;19967;-68
2023/09/10 14:34:59;;;;;;;;;;;;;;;;;;5048510;28;20298;-68
2023/09/10 14:37:25;;;;;;;;;;;;;;;;;;5048772;28;19999;-68
2023/09/10 14:39:51;;;;;;;;;;;;;;;;;;5045750;28;19936;-68
2023/09/10 14:42:17;;;;;;;;;;;;;;;;;;5011985;28;20334;-68
2023/09/10 14:44:43;;;;;;;;;;;;;;;;;;5042817;28;19966;-68
2023/09/10 14:47:09;;;;;;;;;;;;;;;;;;5047432;28;19978;-68
2023/09/10 14:49:35;;;;;;;;;;;;;;;;;;5039151;28;19925;-68
2023/09/10 14:52:01;;;;;;;;;;;;;;;;;;5047594;28;19982;-68
2023/09/10 14:54:26;;;;;;;;;;;;;;;;;;5048085;28;19925;-68
2023/09/10 14:56:57;;;;;;;;;;;;;;;;;;5047134;28;20290;-68
2023/09/10 14:59:23;;;;;;;;;;;;;;;;;;5043560;28;19925;-68
2023/09/10 15:01:49;;;;;;;;;;;;;;;;;;5045602;28;19932;-68
2023/09/10 15:04:15;;;;;;;;;;;;;;;;;;5032156;28;20006;-69
2023/09/10 15:06:41;;;;;;;;;;;;;;;;;;5052147;28;20362;-69
2023/09/10 15:09:06;;;;;;;;;;;;;;;;;;5048619;28;19931;-69
2023/09/10 15:11:32;;;;;;;;;;;;;;;;;;5053631;28;19925;-67
2023/09/10 15:13:58;;;;;;;;;;;;;;;;;;5054671;28;20059;-67
2023/09/10 15:16:24;;;;;;;;;;;;;;;;;;5047924;28;19933;-67
2023/09/10 15:18:50;;;;;;;;;;;;;;;;;;5045807;28;20335;-68
2023/09/10 15:21:16;;;;;;;;;;;;;;;;;;5040608;28;19925;-67
2023/09/10 15:23:42;;;;;;;;;;;;;;;;;;5044729;28;19928;-68
2023/09/10 15:26:08;;;;;;;;;;;;;;;;;;5048691;28;19931;-68
2023/09/10 15:28:34;;;;;;;;;;;;;;;;;;5032132;28;19920;-68
2023/09/10 15:31:00;;;;;;;;;;;;;;;;;;5040133;28;19925;-68
2023/09/10 15:33:25;;;;;;;;;;;;;;;;;;5027833;28;19967;-67
2023/09/10 15:35:52;;;;;;;;;;;;;;;;;;5043540;28;19929;-68
2023/09/10 15:38:18;;;;;;;;;;;;;;;;;;5022962;28;20422;-68
2023/09/10 15:40:44;;;;;;;;;;;;;;;;;;5039316;28;19920;-68
2023/09/10 15:43:10;;;;;;;;;;;;;;;;;;5017721;28;20346;-73
2023/09/10 15:45:36;;;;;;;;;;;;;;;;;;5038144;28;19985;-68
2023/09/10 15:48:02;;;;;;;;;;;;;;;;;;5042493;28;19924;-68
2023/09/10 15:50:28;;;;;;;;;;;;;;;;;;5037052;28;19925;-68
2023/09/10 15:52:54;;;;;;;;;;;;;;;;;;5048592;28;20405;-68
2023/09/10 15:55:20;;;;;;;;;;;;;;;;;;5048956;28;19978;-68
2023/09/10 15:57:47;;;;;;;;;;;;;;;;;;5033189;28;19920;-68
2023/09/10 16:00:14;;;;;;;;;;;;;;;;;;5051528;28;19929;-68
2023/09/10 16:02:40;;;;;;;;;;;;;;;;;;5051750;28;19930;-68
2023/09/10 16:05:06;;;;;;;;;;;;;;;;;;5045705;28;20036;-68
2023/09/10 16:07:32;;;;;;;;;;;;;;;;;;5036844;28;19965;-68
2023/09/10 16:09:58;;;;;;;;;;;;;;;;;;5046962;28;19932;-68
2023/09/10 16:12:24;;;;;;;;;;;;;;;;;;5049283;28;19927;-68
2023/09/10 16:14:50;;;;;;;;;;;;;;;;;;5046422;28;20285;-68
2023/09/10 16:17:16;;;;;;;;;;;;;;;;;;5055725;28;19925;-68
2023/09/10 16:19:42;;;;;;;;;;;;;;;;;;5050578;28;20037;-68
2023/09/10 16:22:08;;;;;;;;;;;;;;;;;;5015612;28;19932;-68
2023/09/10 16:24:35;;;;;;;;;;;;;;;;;;5041007;28;20330;-68
2023/09/10 16:27:01;;;;;;;;;;;;;;;;;;5033018;28;19920;-68
2023/09/10 16:29:27;;;;;;;;;;;;;;;;;;5052187;28;19990;-68
2023/09/10 16:31:52;;;;;;;;;;;;;;;;;;5047888;28;19972;-68
2023/09/10 16:34:18;;;;;;;;;;;;;;;;;;5051627;28;19928;-68
2023/09/10 16:36:44;;;;;;;;;;;;;;;;;;5046652;28;19927;-68